Time;durP1;ratioP1;P1;durP2;ratioP2;P2;SDS_P1;SDS_P2;PMS_P1;PMS_P2;Temp;Humidity;BMP_temperature;BMP_pressure;BME280_temperature;BME280_humidity;BME280_pressure;Samples;Min_cycle;Max_cycle;Signal;HPM_P1;HPM_P2
2024/01/16 00:00:30;;;;;;;11.35;2.80;;;;;;;0.38;100.00;99666.22;5020637;28;21175;-72
2024/01/16 00:03:01;;;;;;;9.60;2.80;;;;;;;0.39;100.00;99678.38;5020255;28;20042;-70
2024/01/16 00:05:29;;;;;;;7.80;3.17;;;;;;;0.51;100.00;99696.38;5039523;28;20079;-71
2024/01/16 00:07:59;;;;;;;7.68;3.05;;;;;;;0.46;100.00;99699.09;5036813;28;20660;-71
2024/01/16 00:10:27;;;;;;;6.07;2.97;;;;;;;0.35;100.00;99691.44;5014288;28;20076;-71
2024/01/16 00:12:57;;;;;;;6.82;3.70;;;;;;;0.35;100.00;99691.44;5023446;28;20141;-70
2024/01/16 00:15:26;;;;;;;9.30;3.08;;;;;;;0.38;100.00;99703.56;5020093;28;20146;-71
2024/01/16 00:17:57;;;;;;;5.82;3.10;;;;;;;0.37;100.00;99711.38;5038829;28;20774;-71
2024/01/16 00:20:26;;;;;;;10.45;3.55;;;;;;;0.40;100.00;99720.03;5035151;28;20060;-70
2024/01/16 00:22:57;;;;;;;7.53;4.03;;;;;;;0.33;100.00;99703.63;5037573;28;20138;-70
2024/01/16 00:25:26;;;;;;;8.70;3.83;;;;;;;0.32;100.00;99716.66;5037767;28;20144;-69
2024/01/16 00:27:57;;;;;;;10.98;3.90;;;;;;;0.20;100.00;99716.88;5020732;28;20062;-70
2024/01/16 00:30:25;;;;;;;8.93;4.15;;;;;;;0.19;100.00;99715.16;5014881;28;20045;-71
2024/01/16 00:32:53;;;;;;;10.00;4.35;;;;;;;0.13;100.00;99720.47;5011970;28;20073;-70
2024/01/16 00:35:25;;;;;;;9.88;4.40;;;;;;;0.07;100.00;99717.94;5028145;28;20045;-69
2024/01/16 00:37:53;;;;;;;10.93;4.80;;;;;;;-0.03;100.00;99719.84;5040649;28;20054;-70
2024/01/16 00:40:22;;;;;;;9.65;4.60;;;;;;;-0.10;100.00;99721.66;5038046;28;20084;-70
2024/01/16 00:42:54;;;;;;;12.77;5.45;;;;;;;-0.13;100.00;99724.31;5044167;28;20465;-70
2024/01/16 00:45:23;;;;;;;10.00;4.60;;;;;;;-0.13;100.00;99724.31;5040143;28;20052;-70
2024/01/16 00:47:52;;;;;;;10.00;4.80;;;;;;;-0.15;100.00;99715.66;5007201;28;20052;-69
2024/01/16 00:50:24;;;;;;;9.82;5.30;;;;;;;-0.18;100.00;99720.06;5038364;28;20548;-70
2024/01/16 00:52:54;;;;;;;9.15;4.88;;;;;;;-0.22;100.00;99716.66;5024711;28;20128;-71
2024/01/16 00:55:22;;;;;;;9.18;4.43;;;;;;;-0.18;100.00;99726.13;5022136;28;20052;-70
2024/01/16 00:57:53;;;;;;;8.43;4.47;;;;;;;-0.17;100.00;99730.47;5020810;28;20079;-70
2024/01/16 01:00:21;;;;;;;;;;;;;;;-0.17;100.00;99732.19;5031150;28;20050;-70
2024/01/16 01:02:50;;;;;;;8.32;4.10;;;;;;;-0.21;100.00;99730.50;5020559;28;19956;-72
2024/01/16 01:05:20;;;;;;;10.63;5.28;;;;;;;-0.23;100.00;99729.66;5004290;28;20127;-71
2024/01/16 01:07:49;;;;;;;14.55;4.57;;;;;;;-0.32;100.00;99729.81;5025523;28;20050;-72
2024/01/16 01:10:22;;;;;;;11.25;5.22;;;;;;;-0.30;100.00;99733.22;5014484;28;20042;-72
2024/01/16 01:12:53;;;;;;;10.25;4.55;;;;;;;-0.30;100.00;99735.81;5031740;28;20071;-71
2024/01/16 01:15:22;;;;;;;11.65;5.45;;;;;;;-0.28;100.00;99741.88;5037147;28;20069;-70
2024/01/16 01:17:50;;;;;;;10.18;5.05;;;;;;;-0.39;100.00;99724.69;5024200;28;20121;-71
2024/01/16 01:20:19;;;;;;;9.05;4.50;;;;;;;-0.23;100.00;99742.69;5031807;28;20041;-71
2024/01/16 01:22:51;;;;;;;9.85;4.50;;;;;;;-0.14;100.00;99747.75;5025568;28;20429;-71
2024/01/16 01:25:21;;;;;;;11.32;4.60;;;;;;;-0.15;100.00;99748.63;5021033;28;20045;-70
2024/01/16 01:27:57;;;;;;;9.55;4.68;;;;;;;-0.13;100.00;99752.94;5027542;28;20049;-69
2024/01/16 01:30:29;;;;;;;8.45;4.93;;;;;;;-0.24;100.00;99735.75;5034748;28;20053;-70
2024/01/16 01:33:01;;;;;;;10.45;5.03;;;;;;;-0.11;100.00;99761.59;5027278;28;20687;-70
2024/01/16 01:35:29;;;;;;;8.55;4.63;;;;;;;-0.16;100.00;99759.94;5025693;28;20058;-72
2024/01/16 01:38:00;;;;;;;12.57;5.10;;;;;;;-0.24;100.00;99756.56;5025826;28;20076;-72
2024/01/16 01:40:30;;;;;;;14.25;5.00;;;;;;;-0.18;100.00;99761.69;5005141;28;20042;-69
2024/01/16 01:43:20;;;;;;;14.82;4.82;;;;;;;-0.23;100.00;99779.09;5041840;28;20062;-71
2024/01/16 01:46:11;;;;;;;9.18;4.90;;;;;;;-0.24;100.00;99772.19;5046748;28;20038;-70
2024/01/16 01:48:42;;;;;;;10.38;4.97;;;;;;;-0.26;100.00;99774.81;5025810;28;20042;-70
2024/01/16 01:51:13;;;;;;;10.73;4.50;;;;;;;-0.19;100.00;99776.44;5018239;28;20041;-69
2024/01/16 01:53:43;;;;;;;14.73;5.00;;;;;;;-0.13;100.00;99780.69;5018288;28;20377;-70
2024/01/16 01:56:17;;;;;;;13.13;5.00;;;;;;;-0.05;100.00;99779.72;5007639;28;20037;-71
2024/01/16 01:58:47;;;;;;;10.32;4.95;;;;;;;-0.04;100.00;99785.78;5006140;28;20042;-71
2024/01/16 02:01:18;;;;;;;10.00;4.70;;;;;;;0.00;100.00;99787.47;5014476;28;20574;-71
2024/01/16 02:03:48;;;;;;;10.88;5.38;;;;;;;-0.06;100.00;99769.34;5038379;28;20037;-71
2024/01/16 02:06:16;;;;;;;10.80;5.25;;;;;;;0.17;100.00;99795.88;5033838;28;20703;-72
2024/01/16 02:08:45;;;;;;;11.25;4.88;;;;;;;0.19;100.00;99783.69;5025113;28;20046;-71
2024/01/16 02:11:14;;;;;;;8.70;4.83;;;;;;;0.16;100.00;99788.13;5031712;28;20042;-71
2024/01/16 02:13:46;;;;;;;9.98;5.00;;;;;;;0.26;100.00;99790.56;5007486;28;20272;-71
2024/01/16 02:16:21;;;;;;;10.55;4.80;;;;;;;0.23;100.00;99784.53;5002822;28;20123;-71
2024/01/16 02:18:50;;;;;;;13.43;5.20;;;;;;;0.25;100.00;99778.41;5022957;28;20046;-72
2024/01/16 02:21:23;;;;;;;9.90;4.75;;;;;;;0.26;100.00;99784.50;5030367;28;20397;-71
2024/01/16 02:23:53;;;;;;;11.80;5.20;;;;;;;0.18;100.00;99797.59;5024570;28;20047;-72
2024/01/16 02:26:24;;;;;;;9.40;4.68;;;;;;;0.13;100.00;99798.56;5026527;28;20050;-69
2024/01/16 02:28:55;;;;;;;8.60;4.47;;;;;;;0.09;100.00;99802.09;5037223;28;20034;-72
2024/01/16 02:31:23;;;;;;;9.63;5.68;;;;;;;-0.09;100.00;99787.59;5031185;28;20041;-70
2024/01/16 02:33:51;;;;;;;8.73;4.88;;;;;;;0.05;100.00;99790.00;5020193;28;20071;-72
2024/01/16 02:36:19;;;;;;;9.80;5.00;;;;;;;0.04;100.00;99794.34;5017699;28;20074;-70
2024/01/16 02:38:54;;;;;;;10.02;5.13;;;;;;;0.03;100.00;99789.16;5041254;28;20041;-70
2024/01/16 02:41:22;;;;;;;9.45;4.97;;;;;;;0.13;100.00;99803.78;5012598;28;20084;-71
2024/01/16 02:43:50;;;;;;;10.18;5.38;;;;;;;0.15;100.00;99800.28;5040744;28;20049;-70
2024/01/16 02:46:19;;;;;;;8.38;5.03;;;;;;;0.21;100.00;99796.69;5016689;28;20044;-70
2024/01/16 02:48:50;;;;;;;10.52;5.57;;;;;;;0.27;100.00;99807.91;5034190;28;20068;-69
2024/01/16 02:51:18;;;;;;;12.18;5.22;;;;;;;0.31;100.00;99812.19;5028909;28;20042;-70
2024/01/16 02:53:47;;;;;;;8.13;5.00;;;;;;;0.34;100.00;99819.94;5035017;28;20402;-70
2024/01/16 02:56:16;;;;;;;13.52;5.63;;;;;;;0.35;100.00;99812.97;5034670;28;20640;-72
2024/01/16 02:58:44;;;;;;;11.18;4.82;;;;;;;0.29;100.00;99813.09;5021574;28;20077;-70
2024/01/16 03:01:12;;;;;;;14.25;5.80;;;;;;;0.23;100.00;99816.63;5015930;28;20060;-71
2024/01/16 03:03:40;;;;;;;12.27;5.70;;;;;;;0.21;100.00;99815.78;5035270;28;20082;-70
2024/01/16 03:06:08;;;;;;;11.55;5.40;;;;;;;0.23;100.00;99821.84;5016903;28;20052;-70
2024/01/16 03:08:37;;;;;;;10.68;5.05;;;;;;;0.18;100.00;99810.63;5018078;28;20034;-71
2024/01/16 03:11:05;;;;;;;8.77;5.30;;;;;;;0.21;100.00;99825.34;5034712;28;20051;-70
2024/01/16 03:13:37;;;;;;;11.75;6.00;;;;;;;0.09;100.00;99805.56;5024127;28;20380;-70
2024/01/16 03:16:08;;;;;;;15.25;5.70;;;;;;;0.15;100.00;99825.44;5026560;28;20045;-71
2024/01/16 03:18:38;;;;;;;10.30;5.60;;;;;;;0.07;100.00;99825.53;5023420;28;20053;-71
2024/01/16 03:21:07;;;;;;;10.35;5.07;;;;;;;0.07;100.00;99829.88;5020414;28;20153;-70
2024/01/16 03:23:35;;;;;;;11.73;5.15;;;;;;;0.03;100.00;99828.19;5021772;28;20038;-70
2024/01/16 03:26:04;;;;;;;9.90;5.50;;;;;;;-0.15;100.00;99808.47;5025924;28;20041;-71
2024/01/16 03:28:32;;;;;;;7.10;4.70;;;;;;;-0.03;100.00;99823.94;5023251;28;20049;-72
2024/01/16 03:31:04;;;;;;;8.80;5.03;;;;;;;0.05;100.00;99845.53;5021172;28;20064;-71
2024/01/16 03:33:34;;;;;;;9.57;5.13;;;;;;;-0.05;100.00;99821.38;5024241;28;20766;-70
2024/01/16 03:36:02;;;;;;;9.00;5.13;;;;;;;-0.06;100.00;99821.38;5038228;28;20746;-70
2024/01/16 03:38:31;;;;;;;7.63;4.85;;;;;;;-0.03;100.00;99827.41;5009555;28;20052;-69
2024/01/16 03:40:59;;;;;;;9.30;5.53;;;;;;;0.07;100.00;99840.28;5025643;28;20050;-69
2024/01/16 03:43:29;;;;;;;10.70;5.00;;;;;;;-0.06;100.00;99818.78;5029593;28;20049;-72
2024/01/16 03:45:58;;;;;;;12.77;4.93;;;;;;;0.14;100.00;99836.75;5041913;28;20838;-70
2024/01/16 03:48:28;;;;;;;13.38;5.63;;;;;;;0.17;100.00;99842.75;5008544;28;20057;-70
2024/01/16 03:51:01;;;;;;;10.60;5.30;;;;;;;0.20;100.00;99836.63;5017360;28;20391;-69
2024/01/16 03:53:32;;;;;;;10.20;5.25;;;;;;;0.23;100.00;99836.59;5037246;28;20127;-70
2024/01/16 03:56:00;;;;;;;13.77;5.43;;;;;;;0.10;100.00;99824.66;5022713;28;20706;-70
2024/01/16 03:58:29;;;;;;;13.43;5.05;;;;;;;0.13;100.00;99830.69;5023146;28;20622;-72
2024/01/16 04:00:58;;;;;;;10.93;5.45;;;;;;;0.06;100.00;99828.16;5034509;28;20333;-72
2024/01/16 04:03:27;;;;;;;14.00;5.75;;;;;;;0.05;100.00;99836.84;5021335;28;20046;-71
2024/01/16 04:05:58;;;;;;;7.90;4.00;;;;;;;-0.01;100.00;99830.88;5021167;28;20038;-72
2024/01/16 04:08:27;;;;;;;11.98;4.55;;;;;;;-0.06;100.00;99839.59;5019729;28;20053;-72
2024/01/16 04:10:56;;;;;;;12.43;5.20;;;;;;;0.00;100.00;99816.13;5011174;28;20793;-70
2024/01/16 04:13:25;;;;;;;10.45;5.25;;;;;;;0.11;100.00;99818.56;5036359;28;20511;-70
2024/01/16 04:15:53;;;;;;;10.65;4.90;;;;;;;0.18;100.00;99835.78;5024023;28;20041;-70
2024/01/16 04:18:23;;;;;;;10.80;4.50;;;;;;;0.14;100.00;99827.19;5040502;28;20077;-70
2024/01/16 04:20:53;;;;;;;9.88;5.10;;;;;;;0.11;100.00;99828.97;5021434;28;20037;-72
2024/01/16 04:23:23;;;;;;;11.82;5.13;;;;;;;0.19;100.00;99830.56;5015785;28;20052;-73
2024/01/16 04:25:51;;;;;;;8.70;5.22;;;;;;;0.18;100.00;99818.44;5021070;28;20048;-71
2024/01/16 04:28:23;;;;;;;8.40;4.88;;;;;;;0.16;100.00;99829.78;5019294;28;20076;-71
2024/01/16 04:30:53;;;;;;;11.15;4.85;;;;;;;0.11;100.00;99836.78;5006367;28;20208;-70
2024/01/16 04:33:21;;;;;;;13.05;5.00;;;;;;;0.01;100.00;99833.41;5019152;28;20514;-71
2024/01/16 04:35:51;;;;;;;8.98;4.35;;;;;;;0.04;100.00;99838.59;5039603;28;20088;-71
2024/01/16 04:38:23;;;;;;;9.88;5.43;;;;;;;-0.13;100.00;99814.53;5039401;28;20081;-69
2024/01/16 04:40:53;;;;;;;11.25;5.30;;;;;;;-0.14;100.00;99826.69;5037082;28;20632;-71
2024/01/16 04:43:20;;;;;;;14.75;5.85;;;;;;;-0.17;100.00;99838.88;5017883;28;20050;-71
2024/01/16 04:45:48;;;;;;;9.27;5.25;;;;;;;-0.30;100.00;99837.28;5041422;28;20550;-71
2024/01/16 04:48:16;;;;;;;10.63;5.85;;;;;;;-0.27;100.00;99840.72;5041645;28;20180;-71
2024/01/16 04:50:46;;;;;;;11.75;5.53;;;;;;;-0.50;100.00;99822.81;5020014;28;20052;-72
2024/01/16 04:53:14;;;;;;;9.88;5.53;;;;;;;-0.37;100.00;99845.19;4996834;28;20150;-70
2024/01/16 04:55:44;;;;;;;13.70;5.93;;;;;;;-0.46;100.00;99845.28;5035420;28;20749;-71
2024/01/16 04:58:13;;;;;;;12.75;6.15;;;;;;;-0.54;100.00;99838.44;5017658;28;20502;-71
2024/01/16 05:00:42;;;;;;;13.05;6.03;;;;;;;-0.58;100.00;99835.00;5036902;28;20052;-72
2024/01/16 05:03:13;;;;;;;13.65;6.00;;;;;;;-0.53;100.00;99847.97;5013981;28;20426;-69
2024/01/16 05:05:44;;;;;;;11.68;5.80;;;;;;;-0.51;100.00;99833.22;5020459;28;20045;-70
2024/01/16 05:08:13;;;;;;;14.93;5.88;;;;;;;-0.55;100.00;99831.53;5020660;28;20266;-70
2024/01/16 05:10:41;;;;;;;11.15;5.88;;;;;;;-0.50;100.00;99837.53;5023248;28;20037;-71
2024/01/16 05:13:13;;;;;;;10.30;6.05;;;;;;;-0.50;100.00;99833.19;5014957;28;20053;-71
2024/01/16 05:15:42;;;;;;;12.25;6.45;;;;;;;-0.53;100.00;99817.63;5036887;28;20429;-70
2024/01/16 05:18:11;;;;;;;11.50;6.63;;;;;;;-0.46;100.00;99827.06;5011319;28;20038;-71
2024/01/16 05:20:41;;;;;;;9.57;6.18;;;;;;;-0.48;100.00;99821.03;5037880;28;20047;-71
2024/01/16 05:23:09;;;;;;;11.63;5.63;;;;;;;-0.42;100.00;99807.94;5019309;28;20036;-70
2024/01/16 05:25:39;;;;;;;10.98;5.65;;;;;;;-0.41;100.00;99812.28;5020117;28;20042;-71
2024/01/16 05:28:08;;;;;;;10.50;4.63;;;;;;;-0.42;100.00;99802.75;5036474;28;20041;-71
2024/01/16 05:30:40;;;;;;;15.05;5.50;;;;;;;-0.42;100.00;99809.69;5025355;28;20534;-70
2024/01/16 05:33:10;;;;;;;13.18;5.88;;;;;;;-0.47;100.00;99801.94;5017667;28;20057;-70
2024/01/16 05:35:38;;;;;;;14.32;5.80;;;;;;;-0.48;100.00;99805.44;5021275;28;20127;-71
2024/01/16 05:38:07;;;;;;;11.48;6.15;;;;;;;-0.51;100.00;99812.41;5036718;28;20540;-71
2024/01/16 05:40:37;;;;;;;13.50;5.80;;;;;;;-0.58;100.00;99814.22;5021224;28;20068;-71
2024/01/16 05:43:09;;;;;;;14.63;5.93;;;;;;;-0.64;100.00;99811.69;5023675;28;20121;-71
2024/01/16 05:45:39;;;;;;;16.55;6.00;;;;;;;-0.63;100.00;99815.16;5029755;28;20049;-70
2024/01/16 05:48:08;;;;;;;12.23;5.70;;;;;;;-0.63;100.00;99813.38;5040279;28;20057;-71
2024/01/16 05:50:37;;;;;;;14.77;5.90;;;;;;;-0.61;100.00;99803.84;5013099;28;20120;-69
2024/01/16 05:53:08;;;;;;;14.63;6.05;;;;;;;-0.58;100.00;99809.00;4996920;28;20049;-71
2024/01/16 05:55:37;;;;;;;11.85;6.18;;;;;;;-0.56;100.00;99804.66;5020564;28;20121;-71
2024/01/16 05:58:09;;;;;;;14.43;6.57;;;;;;;-0.49;100.00;99808.06;5018801;28;20413;-71
2024/01/16 06:00:45;;;;;;;14.30;5.97;;;;;;;-0.47;100.00;99812.34;5034340;28;20049;-70
2024/01/16 06:03:15;;;;;;;11.50;6.22;;;;;;;-0.52;100.00;99802.88;5014264;28;20584;-70
2024/01/16 06:05:48;;;;;;;10.45;5.78;;;;;;;-0.58;100.00;99802.94;5034946;28;20062;-71
2024/01/16 06:08:16;;;;;;;9.82;6.03;;;;;;;-0.62;100.00;99801.25;5019860;28;20394;-70
2024/01/16 06:10:49;;;;;;;14.27;6.07;;;;;;;-0.69;100.00;99803.06;5033203;28;20092;-68
2024/01/16 06:13:19;;;;;;;13.57;6.57;;;;;;;-0.71;100.00;99795.28;5013323;28;20560;-71
2024/01/16 06:15:51;;;;;;;13.15;6.10;;;;;;;-0.75;100.00;99792.72;5020946;28;20539;-71
2024/01/16 06:18:19;;;;;;;13.93;6.18;;;;;;;-0.77;100.00;99794.47;5035813;28;20048;-71
2024/01/16 06:20:47;;;;;;;11.38;5.88;;;;;;;-0.77;100.00;99789.28;5019837;28;20527;-71
2024/01/16 06:23:16;;;;;;;13.88;6.68;;;;;;;-0.76;100.00;99785.81;5009125;28;20045;-72
2024/01/16 06:25:50;;;;;;;12.02;6.40;;;;;;;-0.65;100.00;99780.50;5021399;28;20099;-71
2024/01/16 06:28:18;;;;;;;11.65;6.43;;;;;;;-0.63;100.00;99782.19;5020694;28;20038;-71
2024/01/16 06:30:47;;;;;;;12.23;6.65;;;;;;;-0.58;100.00;99777.81;5037120;28;20061;-71
2024/01/16 06:33:21;;;;;;;12.38;6.13;;;;;;;-0.54;100.00;99774.28;5013360;28;20041;-72
2024/01/16 06:35:55;;;;;;;13.85;6.70;;;;;;;-0.54;100.00;99765.63;5013213;28;20490;-71
2024/01/16 06:38:26;;;;;;;12.10;6.25;;;;;;;-0.54;100.00;99774.28;5023059;28;20162;-72
2024/01/16 06:40:55;;;;;;;15.65;6.22;;;;;;;-0.53;100.00;99786.41;5022029;28;20053;-71
2024/01/16 06:43:25;;;;;;;12.32;6.43;;;;;;;-0.54;100.00;99784.69;5026737;28;20267;-70
2024/01/16 06:45:54;;;;;;;10.27;6.00;;;;;;;-0.57;100.00;99770.88;5019812;28;20077;-71
2024/01/16 06:48:25;;;;;;;11.40;6.05;;;;;;;-0.58;100.00;99777.81;5036963;28;20041;-71
2024/01/16 06:50:54;;;;;;;14.27;6.35;;;;;;;-0.62;100.00;99781.31;5020490;28;20069;-73
2024/01/16 06:53:25;;;;;;;13.15;6.22;;;;;;;-0.61;100.00;99788.22;5011455;28;20064;-71
2024/01/16 06:55:54;;;;;;;14.65;6.53;;;;;;;-0.61;100.00;99784.78;5020815;28;20123;-71
2024/01/16 06:58:23;;;;;;;11.02;5.97;;;;;;;-0.60;100.00;99795.16;5017316;28;20466;-72
2024/01/16 07:00:53;;;;;;;9.48;5.82;;;;;;;-0.59;100.00;99794.28;5037057;28;20104;-71
2024/01/16 07:03:25;;;;;;;13.00;6.65;;;;;;;-0.56;100.00;99786.44;5009944;28;20031;-71
2024/01/16 07:05:53;;;;;;;16.58;7.07;;;;;;;-0.59;100.00;99781.28;5016485;28;20044;-71
2024/01/16 07:08:24;;;;;;;13.02;6.85;;;;;;;-0.68;100.00;99790.94;5017251;28;20077;-71
2024/01/16 07:10:56;;;;;;;11.93;6.88;;;;;;;-0.75;100.00;99798.78;5023451;28;20052;-71
2024/01/16 07:13:25;;;;;;;13.20;6.00;;;;;;;-0.90;100.00;99801.56;5017323;28;20045;-71
2024/01/16 07:15:53;;;;;;;10.82;6.40;;;;;;;-1.06;100.00;99799.97;5006657;28;20042;-72
2024/01/16 07:18:21;;;;;;;14.07;7.40;;;;;;;-1.08;100.00;99807.78;5031682;28;20046;-73
2024/01/16 07:21:03;;;;;;;14.13;8.00;;;;;;;-1.10;100.00;99811.25;5036997;28;20046;-70
2024/01/16 07:23:32;;;;;;;15.07;6.88;;;;;;;-1.17;100.00;99801.81;5017021;28;20045;-70
2024/01/16 07:26:04;;;;;;;17.85;8.68;;;;;;;-1.23;100.00;99799.28;5006043;28;20077;-70
2024/01/16 07:28:33;;;;;;;17.23;8.02;;;;;;;-1.27;100.00;99810.59;5039326;28;20057;-70
2024/01/16 07:31:03;;;;;;;15.85;7.85;;;;;;;-1.30;100.00;99810.59;5033205;28;20094;-72
2024/01/16 07:33:32;;;;;;;20.92;8.13;;;;;;;-1.28;100.00;99814.06;5010232;28;20144;-71
2024/01/16 07:36:02;;;;;;;15.68;7.90;;;;;;;-1.29;100.00;99813.19;5002219;28;20492;-71
2024/01/16 07:38:31;;;;;;;15.52;8.05;;;;;;;-1.24;100.00;99816.59;5014768;28;20094;-72
2024/01/16 07:41:00;;;;;;;12.40;7.70;;;;;;;-1.20;100.00;99814.84;5035676;28;20045;-69
2024/01/16 07:43:30;;;;;;;13.85;7.97;;;;;;;-1.23;100.00;99813.13;5027774;28;20533;-70
2024/01/16 07:46:00;;;;;;;18.25;8.00;;;;;;;-1.20;100.00;99814.84;5044450;28;20142;-72
2024/01/16 07:48:29;;;;;;;14.20;7.85;;;;;;;-1.18;100.00;99815.69;5028405;28;20085;-70
2024/01/16 07:50:57;;;;;;;20.73;8.40;;;;;;;-1.12;100.00;99828.63;5039278;28;20404;-72
2024/01/16 07:53:27;;;;;;;17.73;7.78;;;;;;;-1.14;100.00;99827.78;5022774;28;20049;-71
2024/01/16 07:55:58;;;;;;;14.90;8.13;;;;;;;-1.11;100.00;99826.03;5011573;28;20599;-71
2024/01/16 07:58:26;;;;;;;14.07;7.25;;;;;;;-1.07;100.00;99834.63;5015878;28;20064;-71
2024/01/16 08:00:54;;;;;;;15.73;8.50;;;;;;;-1.02;100.00;99837.19;5044801;28;20037;-71
2024/01/16 08:03:22;;;;;;;14.70;7.43;;;;;;;-0.95;100.00;99838.88;5034356;28;20052;-68
2024/01/16 08:05:52;;;;;;;15.38;7.60;;;;;;;-1.01;100.00;99819.00;5039994;28;20049;-72
2024/01/16 08:08:23;;;;;;;15.13;7.70;;;;;;;-0.91;100.00;99830.16;5040097;28;20041;-72
2024/01/16 08:10:54;;;;;;;;;;;;;;;-0.90;100.00;99834.47;5041395;28;20179;-71
2024/01/16 08:13:24;;;;;;;17.17;7.95;;;;;;;-0.86;100.00;99829.25;5017956;28;19932;-71
2024/01/16 08:15:52;;;;;;;10.32;6.32;;;;;;;-0.72;100.00;99831.69;5019055;28;20145;-71
2024/01/16 08:18:21;;;;;;;13.27;7.18;;;;;;;-0.88;100.00;99815.41;5003997;28;20101;-71
2024/01/16 08:20:49;;;;;;;15.10;7.70;;;;;;;-0.75;100.00;99834.31;5021079;28;20038;-72
2024/01/16 08:23:17;;;;;;;14.73;7.38;;;;;;;-0.64;100.00;99845.50;5021237;28;20057;-72
2024/01/16 08:25:47;;;;;;;15.70;7.80;;;;;;;-0.52;100.00;99842.75;5022526;28;20061;-72
2024/01/16 08:28:17;;;;;;;15.68;7.53;;;;;;;-0.55;100.00;99847.97;5022569;28;20069;-72
2024/01/16 08:30:52;;;;;;;17.02;7.85;;;;;;;-0.74;100.00;99826.50;5028125;28;20057;-70
2024/01/16 08:33:20;;;;;;;19.00;7.60;;;;;;;-0.64;100.00;99837.69;5036256;28;20195;-71
2024/01/16 08:36:02;;;;;;;13.02;7.60;;;;;;;-0.54;100.00;99852.31;5025644;28;20082;-72
2024/01/16 08:38:31;;;;;;;16.27;7.63;;;;;;;-0.54;100.00;99852.31;5016640;28;20045;-73
2024/01/16 08:41:00;;;;;;;17.80;8.05;;;;;;;-0.49;100.00;99841.88;5023973;28;20249;-71
2024/01/16 08:43:30;;;;;;;14.63;7.68;;;;;;;-0.42;100.00;99843.50;5024652;28;20056;-72
2024/01/16 08:45:59;;;;;;;13.65;7.78;;;;;;;-0.40;100.00;99858.22;5027068;28;20784;-73
2024/01/16 08:48:29;;;;;;;17.10;8.05;;;;;;;-0.41;100.00;99858.22;5023242;28;20064;-72
2024/01/16 08:50:58;;;;;;;15.27;8.07;;;;;;;-0.40;100.00;99844.34;5043230;28;20068;-71
2024/01/16 08:53:30;;;;;;;15.13;7.63;;;;;;;-0.25;100.00;99862.38;5023448;28;20053;-71
2024/01/16 08:55:58;;;;;;;18.95;8.35;;;;;;;-0.36;100.00;99853.84;5039750;28;20049;-71
2024/01/16 08:58:28;;;;;;;15.98;7.85;;;;;;;-0.44;100.00;99853.91;5023762;28;20045;-71
2024/01/16 09:01:00;;;;;;;17.73;8.68;;;;;;;-0.57;100.00;99841.06;5038313;28;20042;-71
2024/01/16 09:03:28;;;;;;;18.88;8.52;;;;;;;-0.55;100.00;99853.19;5033906;28;20042;-72
2024/01/16 09:06:02;;;;;;;16.25;8.48;;;;;;;-0.59;100.00;99832.41;5020557;28;20099;-70
2024/01/16 09:08:34;;;;;;;19.40;8.10;;;;;;;-0.34;100.00;99857.28;5019967;28;20049;-71
2024/01/16 09:11:03;;;;;;;15.38;8.68;;;;;;;-0.25;100.00;99858.91;5024981;28;20053;-72
2024/01/16 09:13:33;;;;;;;18.48;8.75;;;;;;;-0.20;100.00;99844.97;5030816;28;20056;-72
2024/01/16 09:16:03;;;;;;;15.40;8.45;;;;;;;-0.08;100.00;99843.97;5014386;28;20836;-72
2024/01/16 09:18:31;;;;;;;17.55;8.48;;;;;;;-0.02;100.00;99849.97;5022955;28;20442;-72
2024/01/16 09:20:59;;;;;;;15.60;8.50;;;;;;;-0.08;100.00;99836.16;5033962;28;20050;-72
2024/01/16 09:23:30;;;;;;;21.27;8.80;;;;;;;-0.04;100.00;99850.84;5033965;28;20056;-71
2024/01/16 09:25:59;;;;;;;17.17;8.02;;;;;;;-0.12;100.00;99829.25;5021726;28;20096;-71
2024/01/16 09:28:28;;;;;;;13.07;7.90;;;;;;;0.15;100.00;99859.28;5040103;28;20075;-71
2024/01/16 09:30:57;;;;;;;14.97;8.13;;;;;;;0.18;100.00;99857.50;5022529;28;20053;-71
2024/01/16 09:33:36;;;;;;;16.83;8.93;;;;;;;0.17;100.00;99867.91;5018973;28;20086;-69
2024/01/16 09:36:05;;;;;;;14.43;8.77;;;;;;;0.09;100.00;99870.63;5031576;28;20115;-73
2024/01/16 09:38:34;;;;;;;16.20;8.55;;;;;;;0.14;100.00;99871.44;5037140;28;20888;-71
2024/01/16 09:41:02;;;;;;;15.90;8.27;;;;;;;0.35;100.00;99878.94;5021385;28;20351;-73
2024/01/16 09:43:33;;;;;;;17.08;8.20;;;;;;;0.45;100.00;99884.06;5021865;28;20060;-71
2024/01/16 09:46:02;;;;;;;16.27;8.27;;;;;;;0.44;100.00;99887.53;5004902;28;20041;-71
2024/01/16 09:48:33;;;;;;;21.38;9.48;;;;;;;0.40;100.00;99889.31;5020062;28;20072;-71
2024/01/16 09:51:02;;;;;;;18.38;9.70;;;;;;;0.38;100.00;99903.22;5021692;28;20057;-71
2024/01/16 09:53:30;;;;;;;19.50;9.55;;;;;;;0.50;100.00;99890.91;5019952;28;21357;-72
2024/01/16 09:56:03;;;;;;;19.63;9.75;;;;;;;0.78;100.00;99898.34;5033470;28;20135;-73
2024/01/16 09:58:37;;;;;;;17.58;9.05;;;;;;;0.80;100.00;99897.41;5027951;28;20053;-71
2024/01/16 10:01:06;;;;;;;17.48;9.70;;;;;;;0.82;100.00;99899.97;5022689;28;20048;-70
2024/01/16 10:03:36;;;;;;;19.67;8.90;;;;;;;0.91;100.00;99900.72;5017308;28;20156;-72
2024/01/16 10:06:07;;;;;;;16.70;8.60;;;;;;;0.99;100.00;99900.59;5021394;28;20049;-72
2024/01/16 10:08:39;;;;;;;21.00;9.52;;;;;;;0.94;100.00;99878.97;5036212;28;20046;-74
2024/01/16 10:11:09;;;;;;;16.20;8.77;;;;;;;0.88;100.00;99899.91;5035608;28;20042;-71
2024/01/16 10:13:39;;;;;;;15.18;8.90;;;;;;;0.89;100.00;99888.59;5012620;28;20353;-70
2024/01/16 10:16:08;;;;;;;20.45;9.68;;;;;;;0.93;100.00;99898.09;5017047;28;20073;-72
2024/01/16 10:18:38;;;;;;;19.42;9.38;;;;;;;0.90;100.00;99891.19;5006079;28;20048;-71
2024/01/16 10:21:22;;;;;;;17.70;8.05;;;;;;;1.01;100.00;99888.38;5035790;28;20057;-71
2024/01/16 10:23:52;;;;;;;16.83;8.27;;;;;;;1.12;100.00;99882.97;5017036;28;20239;-70
2024/01/16 10:26:22;;;;;;;19.27;8.45;;;;;;;1.16;100.00;99872.47;5017582;28;20506;-71
2024/01/16 10:28:50;;;;;;;17.23;8.88;;;;;;;1.17;100.00;99874.19;5002567;28;20053;-72
2024/01/16 10:31:21;;;;;;;14.90;8.40;;;;;;;1.12;100.00;99862.97;5037209;28;20052;-70
2024/01/16 10:33:53;;;;;;;16.20;8.35;;;;;;;1.00;100.00;99864.06;5020742;28;20073;-72
2024/01/16 10:36:21;;;;;;;17.42;7.75;;;;;;;0.90;100.00;99862.50;5017299;28;20498;-72
2024/01/16 10:38:57;;;;;;;17.83;8.00;;;;;;;0.76;100.00;99859.25;5035749;28;20053;-72
2024/01/16 10:41:26;;;;;;;16.88;8.77;;;;;;;0.62;100.00;99863.81;5019975;28;20045;-71
2024/01/16 10:44:06;;;;;;;16.90;8.30;;;;;;;0.50;100.00;99863.97;5004474;28;20111;-70
2024/01/16 10:46:41;;;;;;;18.48;8.35;;;;;;;0.47;100.00;99858.84;5036348;28;20153;-71
2024/01/16 10:49:14;;;;;;;14.32;7.65;;;;;;;0.63;100.00;99865.56;5019293;28;20464;-71
2024/01/16 10:51:45;;;;;;;15.18;7.32;;;;;;;0.76;100.00;99845.38;5019404;28;20042;-70
2024/01/16 10:54:15;;;;;;;16.40;8.02;;;;;;;0.93;100.00;99859.00;5016602;28;21053;-68
2024/01/16 10:56:47;;;;;;;20.80;8.25;;;;;;;1.00;100.00;99852.75;5017219;28;20136;-71
2024/01/16 10:59:22;;;;;;;17.70;8.27;;;;;;;1.10;100.00;99843.06;5035021;28;20050;-73
2024/01/16 11:01:56;;;;;;;12.88;7.57;;;;;;;1.35;100.00;99854.75;5017318;28;20053;-71
2024/01/16 11:04:28;;;;;;;14.70;7.07;;;;;;;1.47;100.00;99841.50;5017648;28;20617;-71
2024/01/16 11:07:06;;;;;;;17.55;8.27;;;;;;;1.57;100.00;99840.44;5037882;28;20366;-71
2024/01/16 11:09:36;;;;;;;16.27;8.07;;;;;;;1.73;100.00;99841.81;5017805;28;20114;-71
2024/01/16 11:12:05;;;;;;;16.55;8.10;;;;;;;1.84;100.00;99833.81;5021923;28;20048;-71
2024/01/16 11:14:34;;;;;;;14.70;8.40;;;;;;;1.81;100.00;99817.34;5028374;28;20046;-72
2024/01/16 11:17:05;;;;;;;17.03;10.17;;;;;;;1.77;100.00;99806.94;5031914;28;20136;-71
2024/01/16 11:19:34;;;;;;;22.60;10.57;;;;;;;1.85;100.00;99819.00;5035960;28;20047;-73
2024/01/16 11:22:28;;;;;;;21.50;9.40;;;;;;;1.94;100.00;99829.25;5020826;28;20046;-73
2024/01/16 11:25:14;;;;;;;17.33;9.73;;;;;;;2.05;100.00;99830.72;5014466;28;20135;-69
2024/01/16 11:27:50;;;;;;;19.70;9.30;;;;;;;2.23;100.00;99821.63;5023667;28;20080;-74
2024/01/16 11:30:32;;;;;;;26.27;11.27;;;;;;;2.34;100.00;99824.03;5018603;28;20034;-72
2024/01/16 11:33:00;;;;;;;22.88;10.25;;;;;;;2.39;100.00;99815.16;5022895;28;20402;-73
2024/01/16 11:35:36;;;;;;;22.63;11.23;;;;;;;2.51;100.00;99807.97;5007175;28;20048;-71